Weather observations for the past three days for
Abingdon
Imperial (Metric)
Date Time (edt) Wind (mph) Vis. (mi.) Weather Sky Cond. Temperature (ºF) Relative Humidity Wind Chill (°F) Heat Index (°F) Pressure Precipitation (in)
Air Dwpt 6 hour altimeter (in) sea level (mb) 1 hr 3 hr 6 hr
Max. Min.
08 21:35 Calm 10.00 Fair CLR 53.6 42.8 67% 29.94 0.0
08 21:15 Calm 10.00 Fair CLR 55.4 41 59% 29.94 0.0
08 20:55 Calm 10.00 Fair CLR 57.2 41 55% 29.93 0.0
08 20:35 W 3 10.00 Fair CLR 59 39.2 48% 29.93 0.0
08 20:15 W 5 10.00 Fair CLR 60.8 37.4 42% 29.92 0.0
08 19:55 W 6 10.00 Fair CLR 62.6 37.4 67.6 61.3 39% 29.93 0.0
08 19:35 W 8 10.00 Fair CLR 64.4 37.4 37% 29.93 0.0
08 19:15 W 7 10.00 Fair CLR 64.4 37.4 37% 29.93 0.0
08 18:55 W 10 10.00 Fair CLR 66.2 37.4 35% 29.93 0.0
08 18:35 W 8 10.00 Fair CLR 66.2 35.6 32% 29.93 0.0
08 18:15 W 9 10.00 Fair CLR 66.2 35.6 32% 29.93 0.0
08 17:55 SW 6 10.00 Fair CLR 66.2 35.6 32% 29.92 0.0
08 17:35 W 7 10.00 Fair CLR 66.2 33.8 30% 29.91 0.0
08 17:15 Vrbl 3 10.00 Fair CLR 66.2 33.8 30% 29.92 0.0
08 16:55 SW 6 10.00 Fair CLR 66.2 35.6 32% 29.93 0.0
08 16:35 SW 7 10.00 Fair CLR 66.2 35.6 32% 29.94 0.0
08 16:15 W 7 G 16 10.00 Fair CLR 66.2 37.4 35% 29.96 0.0
08 15:55 W 8 10.00 Fair CLR 66.2 35.6 32% 29.96 0.0
08 15:35 W 9 10.00 Fair CLR 64.4 33.8 32% 29.97 0.0
08 15:15 S 5 10.00 Fair CLR 64.4 37.4 37% 29.98 0.0
08 14:55 NW 7 10.00 Fair CLR 64.4 37.4 37% 29.99 0.0
08 14:35 SW 5 10.00 Fair CLR 64.4 37.4 37% 29.99 0.0
08 14:15 Vrbl 3 10.00 Fair CLR 62.6 39.2 42% 30 0.0
08 13:55 Vrbl 3 10.00 Fair CLR 60.8 37.4 61.7 40.5 42% 30.01 0.0
08 13:35 NW 8 10.00 Fair CLR 60.8 33.8 36% 30.02 0.0
08 13:15 Vrbl 3 10.00 Fair CLR 59 33.8 39% 30.03 0.0
08 12:55 Vrbl 6 10.00 Fair CLR 59 37.4 45% 30.04 0.0
08 12:35 W 6 10.00 Fair CLR 57.2 35.6 44% 30.05 0.0
08 12:15 N 5 10.00 Fair CLR 57.2 33.8 41% 30.06 0.0
08 11:55 S 5 10.00 Fair CLR 57.2 35.6 44% 30.07 0.0
08 11:35 Vrbl 1 10.00 Fair CLR 55.4 33.8 44% 30.07 0.0
08 11:15 Vrbl 5 10.00 Fair CLR 55.4 33.8 44% 30.08 0.0
08 10:55 SW 6 10.00 Fair CLR 53.6 35.6 51% 30.08 0.0
08 10:35 SW 7 10.00 Fair CLR 53.6 41 63% 30.08 0.0
08 10:15 W 8 10.00 Fair CLR 51.8 42.8 72% 30.08 0.0
08 09:55 Vrbl 3 10.00 Fair CLR 50 42.8 76% 30.08 0.0
08 09:35 W 3 10.00 Fair CLR 48.2 42.8 82% 30.08 0.0
08 09:15 SW 3 10.00 Fair CLR 48.2 44.6 87% 30.07 0.0
08 08:55 Vrbl 3 10.00 Fair CLR 46.4 42.8 87% 30.07 0.0
08 08:35 E 3 10.00 Fair CLR 44.6 42.8 93% 30.06 0.0
08 08:15 E 2 10.00 Fair CLR 42.8 41 93% 30.06 0.0
08 07:55 E 3 5.00 Fog/Mist FEW001 41 41 43.2 36.1 100% 30.06 0.0
08 07:35 E 8 6.00 Fog/Mist FEW001 41 39.2 93% 36 30.05 0.0
08 07:15 NE 6 10.00 Fair CLR 39.2 37.4 93% 36 30.04 0.0
08 06:55 E 5 10.00 Fair CLR 37.4 37.4 100% 34 30.04 0.0
08 06:35 E 6 10.00 Fair CLR 37.4 37.4 100% 33 30.03 0.0
08 06:15 NE 5 10.00 Fair CLR 37.4 35.6 93% 34 30.02 0.0
08 05:55 E 2 9.00 Fair CLR 37.4 37.4 100% 30.02 0.0
08 05:35 Calm 10.00 Fair CLR 37.4 35.6 93% 30.02 0.0
08 05:15 Calm 10.00 Fair CLR 37.4 37.4 100% 30.02 0.0
08 04:55 Calm 10.00 Fair CLR 39.2 37.4 93% 30.02 0.0
08 04:35 Calm 10.00 Fair CLR 37.4 37.4 100% 30.02 0.0
08 04:15 Calm 10.00 Fair CLR 37.4 37.4 100% 30.02 0.0
08 03:55 Calm 10.00 Fair CLR 39.2 39.2 100% 30.02 0.0
08 03:35 Calm 10.00 Fair CLR 39.2 39.2 100% 30.02 0.0
08 03:15 Calm 10.00 Fair CLR 41 41 100% 30.01 0.0
08 02:55 Calm 8.00 Fair CLR 41 39.2 93% 30.01 0.0
08 02:15 Calm 6.00 Fog/Mist FEW050 42.8 41 93% 30.01 0.0
08 01:55 Calm 10.00 Partly Cloudy SCT050 42.8 42.8 54 42.4 100% 30.02 0.0
08 01:35 Calm 7.00 Fog/Mist BKN050 42.8 42.8 100% 30.02 0.0
08 01:15 Calm 0.75 Fog/Mist OVC050 42.8 42.8 100% 30.02 0.0
08 00:55 Calm 0.15 Fog VV000 42.8 42.8 100% 30.01 0.0
08 00:35 Calm 0.25 Fog VV002 44.6 44.6 100% 30.01 0.0
08 00:15 Calm 0.75 Fog/Mist VV005 44.6 44.6 100% 30 0.0
07 23:55 Calm 4.00 Fog/Mist FEW050 46.4 46.4 100% 29.99 0.0
07 23:35 Calm 5.00 Fog/Mist FEW050 46.4 46.4 100% 30 0.0
07 23:15 SW 2 4.00 Fog/Mist SCT050 46.4 46.4 100% 30 0.0
07 22:55 W 2 3.00 Fog/Mist BKN050 46.4 46.4 100% 29.99 0.0
07 22:35 Calm 4.00 Fog/Mist BKN050 46.4 46.4 100% 29.98 0.0
07 22:15 Calm 9.00 Partly Cloudy SCT050 48.2 48.2 100% 29.98 0.0
07 21:55 Calm 9.00 A Few Clouds FEW050 48.2 48.2 100% 29.97 0.0
07 21:35 Calm 9.00 Fair CLR 48.2 48.2 100% 29.96 0.0
07 21:15 W 3 10.00 Fair CLR 50 48.2 94% 29.95 0.0
07 20:35 W 2 10.00 A Few Clouds FEW043 50 48.2 94% 29.93 0.0
07 20:15 SW 5 10.00 Fair CLR 51.8 48.2 88% 29.93 0.0
07 19:55 SW 6 10.00 Fair CLR 53.6 44.6 57.4 49.8 72% 29.94 0.0
07 19:35 W 7 10.00 A Few Clouds FEW050 55.4 44.6 67% 29.94 0.0
07 19:15 W 6 10.00 Partly Cloudy FEW044 SCT050 53.6 44.6 72% 29.94 0.0
07 18:55 W 9 10.00 Mostly Cloudy BKN046 55.4 44.6 67% 29.94 0.0
07 18:35 W 6 10.00 Mostly Cloudy FEW030 BKN046 BKN050 57.2 44.6 63% 29.93 0.0
07 18:15 W 3 10.00 Mostly Cloudy FEW034 BKN048 55.4 44.6 67% 29.93 0.0
07 17:55 NW 6 10.00 Overcast OVC046 55.4 42.8 63% 29.92 0.0
07 17:35 NW 5 10.00 Overcast FEW029 OVC044 55.4 44.6 67% 29.92 0.0
07 17:15 NW 12 10.00 Mostly Cloudy SCT029 BKN034 BKN046 57.2 44.6 63% 29.92 0.0
07 16:15 W 6 10.00 Overcast OVC037 51.8 46.4 82% 29.92 0.0
07 15:55 W 6 10.00 Overcast OVC033 51.8 46.4 82% 29.92 0.0
07 15:35 Vrbl 5 10.00 Overcast OVC031 51.8 46.4 82% 29.92 0.0
07 15:15 Vrbl 3 10.00 Overcast OVC027 51.8 46.4 82% 29.92 0.0
07 14:55 NW 6 10.00 Overcast OVC021 50 46.4 88% 48 29.93 0.0
07 14:35 Vrbl 3 10.00 Overcast OVC017 50 46.4 88% 29.93 0.0
07 14:15 Vrbl 3 10.00 Overcast OVC015 50 46.4 88% 29.93 0.0
07 13:55 NW 6 10.00 Overcast OVC011 50 48.2 52.3 49.3 94% 48 29.92 0.0 0.01
07 13:35 NW 8 8.00 Light Rain OVC006 50 48.2 94% 47 29.93 0.0
07 13:15 Vrbl 5 3.00 Light Rain Fog/Mist OVC004 50 50 100% 49 29.92 0.0
07 12:35 NW 6 2.50 Light Drizzle Fog/Mist OVC004 50 50 100% 48 29.92 0.0
07 12:15 Calm 1.75 Light Rain Fog/Mist OVC006 50 50 100% 29.91 0.0
07 11:55 NW 2 6.00 Light Rain Fog/Mist OVC006 50 48.2 94% 29.92 0.0
07 11:35 Vrbl 3 10.00 Light Drizzle OVC006 50 48.2 94% 29.91 0.0
07 11:15 Calm 10.00 Overcast BKN006 OVC010 50 48.2 94% 29.91 0.0
07 10:55 N 6 4.00 Light Drizzle Fog/Mist OVC008 50 48.2 94% 48 29.91 0.0 0.01
07 10:35 NW 9 4.00 Light Drizzle Fog/Mist BKN006 OVC010 50 48.2 94% 47 29.92 0.0
07 10:15 N 6 6.00 Fog/Mist SCT006 OVC010 50 48.2 94% 48 29.91 0.0
07 09:55 NW 5 2.00 Light Rain Fog/Mist BKN006 OVC010 50 48.2 94% 49 29.91 0.0 0.03
07 09:35 W 10 1.75 Light Drizzle Fog/Mist OVC004 51.8 50 94% 29.91 0.0
07 09:15 E 3 2.50 Light Drizzle Fog/Mist OVC006 51.8 51.8 100% 29.9 0.0
07 08:55 NE 5 1.50 Light Rain Fog/Mist OVC006 51.8 50 94% 29.9 0.0 0.01
07 08:35 NE 6 5.00 Fog/Mist OVC006 51.8 50 94% 29.9 0.0
07 08:15 NE 5 8.00 Light Rain OVC004 51.8 51.8 100% 29.9 0.0
07 07:55 Calm 5.00 Light Drizzle Fog/Mist OVC004 51.8 51.8 60.3 52 100% 29.91 0.0 0.04
07 07:35 Calm 10.00 Light Rain OVC006 51.8 51.8 100% 29.9 0.0
07 07:15 W 6 4.00 Light Rain Fog/Mist OVC006 51.8 51.8 100% 29.9 0.0
07 06:55 Calm 10.00 Overcast OVC008 51.8 51.8 100% 29.89 0.0
07 06:35 NW 3 10.00 Overcast OVC008 51.8 51.8 100% 29.89 0.0
07 06:15 NW 5 10.00 Overcast BKN008 OVC017 51.8 51.8 100% 29.89 0.0
07 05:55 W 3 10.00 Overcast BKN008 OVC017 53.6 51.8 94% 29.88 0.0
07 05:35 Calm 10.00 Overcast SCT008 OVC017 53.6 51.8 94% 29.88 0.0
07 05:15 N 2 10.00 Overcast FEW008 OVC017 53.6 51.8 94% 29.87 0.0
07 04:55 Vrbl 5 10.00 Overcast OVC017 53.6 51.8 94% 29.89 0.0 0.02
07 04:35 Calm 10.00 Light Rain OVC017 53.6 51.8 94% 29.87 0.0
07 04:15 Vrbl 2 9.00 Light Rain BKN017 BKN027 OVC110 53.6 51.8 94% 29.88 0.0
07 03:55 S 1 10.00 Light Rain SCT047 SCT060 OVC110 53.6 51.8 94% 29.87 0.0
07 03:35 W 5 10.00 Overcast OVC100 53.6 51.8 94% 29.88 0.0
07 03:15 NW 6 10.00 Overcast SCT029 SCT055 OVC100 55.4 53.6 94% 29.87 0.0
07 02:55 NW 9 9.00 Light Rain SCT019 BKN024 OVC035 55.4 53.6 94% 29.89 0.0 0.19
07 02:35 NW 12 G 18 4.00 Heavy Rain Fog/Mist SCT001 BKN008 OVC020 57.2 55.4 94% 29.88 0.0
07 02:15 SW 9 6.00 Light Rain Fog/Mist OVC001 60.8 60.8 100% 29.88 0.0
07 01:55 SW 9 7.00 Overcast OVC001 60.8 60.8 63.9 60.3 100% 29.89 0.0 0.01
07 01:35 SW 9 7.00 Fog/Mist BKN001 60.8 60.8 100% 29.89 0.0
07 01:15 S 9 2.50 Light Rain Fog/Mist SCT001 60.8 60.8 100% 29.89 0.0
07 00:55 SW 6 2.00 Light Rain Fog/Mist BKN003 60.8 60.8 100% 29.9 0.0
07 00:35 SW 9 10.00 Overcast OVC003 60.8 60.8 100% 29.93 0.0
07 00:15 SW 12 10.00 Overcast OVC003 60.8 60.8 100% 29.92 0.0
06 23:55 SW 8 10.00 Overcast OVC003 60.8 59 94% 29.92 0.0
06 23:35 S 9 10.00 Overcast OVC003 60.8 60.8 100% 29.91 0.0
06 23:15 SW 7 10.00 Overcast OVC003 60.8 59 94% 29.92 0.0
06 22:55 SW 9 10.00 Light Drizzle OVC005 60.8 59 94% 29.92 0.0 0.05
06 22:35 SW 9 10.00 Light Drizzle OVC005 60.8 59 94% 29.91 0.0
06 22:15 SW 13 9.00 Light Rain OVC005 60.8 59 94% 29.93 0.0
06 21:55 W 14 3.00 Heavy Rain Fog/Mist OVC005 60.8 60.8 100% 29.95 0.0 0.32
06 21:35 SW 12 G 18 5.00 Heavy Rain Fog/Mist OVC005 62.6 60.8 94% 29.93 0.0
06 21:15 SW 13 7.00 Light Rain BKN007 OVC011 62.6 62.6 100% 29.92 0.0
06 20:55 SW 13 9.00 Light Rain FEW006 OVC013 62.6 62.6 100% 29.92 0.0 0.05
06 20:35 SW 9 9.00 Light Rain OVC015 62.6 62.6 100% 29.91 0.0
06 20:15 SW 7 7.00 Light Rain Fog/Mist BKN015 BKN022 OVC028 62.6 62.6 100% 29.89 0.0
06 19:55 W 8 8.00 Light Rain BKN020 BKN026 OVC038 64.4 60.8 67.5 63.9 88% 29.9 0.0 0.13
06 19:35 W 7 10.00 Light Rain BKN022 BKN028 OVC035 66.2 60.8 83% 29.89 0.0
06 19:15 SW 12 10.00 Overcast BKN022 BKN028 OVC035 66.2 60.8 83% 29.89 0.0
06 18:55 W 8 10.00 Mostly Cloudy SCT022 BKN027 BKN037 66.2 60.8 83% 29.89 0.0
06 18:35 W 10 10.00 Overcast BKN024 BKN029 OVC037 68 60.8 78% 29.89 0.0
06 18:15 SW 7 10.00 Overcast SCT022 SCT028 OVC035 68 60.8 78% 29.89 0.0
06 17:55 SW 9 10.00 Overcast SCT024 BKN028 OVC035 66.2 60.8 83% 29.89 0.0
06 17:35 SW 10 10.00 Overcast BKN022 OVC029 66.2 60.8 83% 29.91 0.0
06 17:15 W 13 10.00 Overcast SCT019 BKN024 OVC037 66.2 60.8 83% 29.9 0.0
06 16:55 W 10 10.00 Overcast SCT019 BKN029 OVC040 66.2 60.8 83% 29.91 0.0
06 16:35 W 13 10.00 Overcast SCT022 BKN030 OVC040 66.2 60.8 83% 29.9 0.0
06 16:15 W 8 G 17 10.00 Overcast FEW017 BKN023 OVC028 66.2 60.8 83% 29.9 0.0
06 15:55 W 12 G 20 10.00 Overcast SCT015 BKN021 OVC027 66.2 60.8 83% 29.91 0.0
06 15:35 SW 13 10.00 Overcast SCT015 BKN029 OVC037 66.2 60.8 83% 29.92 0.0
06 15:15 W 18 G 24 10.00 Overcast BKN015 BKN022 OVC030 66.2 60.8 83% 29.91 0.0
06 14:55 SW 15 G 21 10.00 Overcast BKN015 BKN022 OVC028 66.2 60.8 83% 29.9 0.0 0.01
06 14:35 SW 14 10.00 Overcast OVC013 64.4 60.8 88% 29.9 0.0
06 14:15 W 12 10.00 Overcast BKN011 OVC017 64.4 60.8 88% 29.9 0.0
06 13:55 SW 13 G 20 10.00 Overcast BKN011 OVC020 64.4 60.8 64 56.5 88% 29.9 0.0
06 13:35 SW 13 G 26 10.00 Overcast SCT009 OVC016 64.4 60.8 88% 29.91 0.0
06 13:15 SW 10 10.00 Overcast BKN011 OVC016 62.6 60.8 94% 29.91 0.0
06 12:55 SW 12 10.00 Light Rain BKN011 OVC020 62.6 60.8 94% 29.92 0.0
06 12:35 SW 10 G 18 10.00 Light Rain BKN013 OVC021 62.6 59 88% 29.93 0.0
06 12:15 SW 14 10.00 Light Rain BKN015 OVC021 60.8 59 94% 29.95 0.0
06 11:55 SW 8 8.00 Light Rain OVC015 60.8 57.2 88% 29.96 0.0
06 11:35 SW 3 10.00 Light Rain OVC015 59 57.2 94% 29.96 0.0
06 11:15 Calm 10.00 Overcast OVC017 59 57.2 94% 29.94 0.0
06 10:55 Calm 10.00 Light Rain OVC017 59 57.2 94% 29.92 0.0 0.01
06 10:35 SE 3 10.00 Light Rain OVC020 59 57.2 94% 29.92 0.0
06 10:15 Vrbl 2 10.00 Overcast OVC025 59 57.2 94% 29.92 0.0
06 09:55 SE 2 10.00 Light Rain OVC027 59 57.2 94% 29.92 0.0
06 09:35 SE 5 10.00 Overcast OVC029 59 57.2 94% 29.92 0.0
06 09:15 SE 6 10.00 Light Rain OVC032 57.2 55.4 94% 29.91 0.0
06 08:55 Vrbl 2 3.00 Light Rain Fog/Mist BKN030 OVC042 57.2 55.4 94% 29.93 0.0 0.14
06 08:35 N 5 2.00 Rain Fog/Mist OVC037 57.2 55.4 94% 29.91 0.0
06 08:15 E 1 2.50 Light Rain Fog/Mist OVC039 57.2 55.4 94% 29.89 0.0
06 07:55 E 7 2.00 Light Rain Fog/Mist OVC039 57.2 55.4 63.7 56.3 94% 29.89 0.0 0.08
06 07:35 Calm 10.00 Overcast OVC039 57.2 55.4 94% 29.87 0.0
06 07:15 SE 3 8.00 Light Rain SCT043 BKN050 OVC075 57.2 53.6 88% 29.87 0.0
06 06:55 NW 13 G 22 6.00 Rain Haze SCT042 OVC050 57.2 53.6 88% 29.88 0.0 0.07
06 06:35 NW 7 10.00 Light Rain OVC042 59 53.6 82% 29.86 0.0
06 06:15 W 2 10.00 Overcast OVC042 59 53.6 82% 29.85 0.0
06 05:35 NW 3 10.00 Overcast OVC048 59 51.8 77% 29.84 0.0
06 05:15 NW 2 10.00 Overcast OVC048 60.8 51.8 72% 29.84 0.0
06 04:55 Calm 10.00 Overcast OVC048 60.8 50 68% 29.84 0.0
06 04:35 Calm 10.00 Overcast BKN048 OVC065 60.8 51.8 72% 29.85 0.0
06 04:15 S 7 10.00 Light Rain BKN050 OVC070 60.8 50 68% 29.86 0.0
06 03:55 SW 9 10.00 Light Rain BKN050 BKN070 OVC090 62.6 48.2 60% 29.87 0.0
06 03:35 W 7 10.00 Overcast BKN050 OVC060 62.6 48.2 60% 29.86 0.0
06 03:15 SW 3 10.00 Overcast BKN060 BKN070 OVC100 62.6 46.4 56% 29.85 0.0
06 02:55 W 5 10.00 Overcast OVC060 62.6 46.4 56% 29.86 0.0
06 02:35 W 5 10.00 Overcast BKN060 BKN080 OVC100 62.6 46.4 56% 29.87 0.0
06 02:15 W 6 10.00 Overcast OVC100 62.6 46.4 56% 29.87 0.0
06 01:55 SW 5 10.00 Mostly Cloudy FEW060 BKN100 BKN120 62.6 44.6 68.5 58.1 52% 29.87 0.0
06 01:35 SW 6 10.00 Mostly Cloudy BKN060 BKN075 62.6 44.6 52% 29.89 0.0
06 01:15 W 6 10.00 Overcast OVC070 60.8 44.6 55% 29.9 0.0
06 00:55 W 5 10.00 Mostly Cloudy BKN070 BKN080 60.8 44.6 55% 29.91 0.0
06 00:35 W 5 10.00 A Few Clouds FEW080 59 44.6 59% 29.91 0.0
06 00:15 W 3 10.00 Fair CLR 59 44.6 59% 29.91 0.0
05 23:55 W 2 10.00 Fair CLR 62.6 44.6 52% 29.9 0.0
05 23:35 SW 3 10.00 Fair CLR 62.6 44.6 52% 29.9 0.0
05 23:15 SW 5 10.00 A Few Clouds FEW070 64.4 44.6 49% 29.9 0.0
05 22:55 S 5 10.00 A Few Clouds FEW070 64.4 44.6 49% 29.9 0.0
05 22:35 SW 6 10.00 A Few Clouds FEW090 66.2 44.6 46% 29.9 0.0
05 22:15 S 10 10.00 Overcast OVC090 68 42.8 40% 29.9 0.0
05 21:55 S 7 10.00 Overcast OVC090 68 42.8 40% 29.9 0.0
Date Time (edt) Wind (mph) Vis. (mi.) Weather Sky Cond. Air Dwpt Max. Min. Relative Humidity Wind Chill (°F) Heat Index (°F) altimeter (in) sea level (mb) 1 hr 3 hr 6 hr
6 hour
Temperature (ºF) Pressure Precipitation (in)